sensor_id;sensor_type;location;lat;lon;timestamp;temperature;humidity
34249;DHT22;20508;50.834;3.160;2022-11-22T00:01:29;16.20;55.10
34249;DHT22;20508;50.834;3.160;2022-11-22T00:03:55;16.20;55.10
34249;DHT22;20508;50.834;3.160;2022-11-22T00:06:20;16.20;55.20
34249;DHT22;20508;50.834;3.160;2022-11-22T00:08:46;16.20;55.20
34249;DHT22;20508;50.834;3.160;2022-11-22T00:11:12;16.20;55.20
34249;DHT22;20508;50.834;3.160;2022-11-22T00:13:38;16.20;55.30
34249;DHT22;20508;50.834;3.160;2022-11-22T00:16:04;16.20;55.20
34249;DHT22;20508;50.834;3.160;2022-11-22T00:18:30;16.20;55.30
34249;DHT22;20508;50.834;3.160;2022-11-22T00:20:56;16.20;55.90
34249;DHT22;20508;50.834;3.160;2022-11-22T00:23:21;16.20;55.20
34249;DHT22;20508;50.834;3.160;2022-11-22T00:25:47;16.20;55.20
34249;DHT22;20508;50.834;3.160;2022-11-22T00:28:13;16.20;55.20
34249;DHT22;20508;50.834;3.160;2022-11-22T00:30:39;16.20;55.10
34249;DHT22;20508;50.834;3.160;2022-11-22T00:33:05;16.20;55.10
34249;DHT22;20508;50.834;3.160;2022-11-22T00:35:30;16.30;55.10
34249;DHT22;20508;50.834;3.160;2022-11-22T00:37:56;16.20;54.90
34249;DHT22;20508;50.834;3.160;2022-11-22T00:40:22;16.30;54.90
34249;DHT22;20508;50.834;3.160;2022-11-22T00:42:48;16.30;54.80
34249;DHT22;20508;50.834;3.160;2022-11-22T00:45:13;16.30;54.70
34249;DHT22;20508;50.834;3.160;2022-11-22T00:47:39;16.30;54.70
34249;DHT22;20508;50.834;3.160;2022-11-22T00:50:05;16.30;54.60
34249;DHT22;20508;50.834;3.160;2022-11-22T00:52:31;16.30;54.50
34249;DHT22;20508;50.834;3.160;2022-11-22T00:54:56;16.30;54.50
34249;DHT22;20508;50.834;3.160;2022-11-22T00:57:22;16.40;54.40
34249;DHT22;20508;50.834;3.160;2022-11-22T00:59:48;16.40;54.40
34249;DHT22;20508;50.834;3.160;2022-11-22T01:02:14;16.40;54.30
34249;DHT22;20508;50.834;3.160;2022-11-22T01:04:40;16.40;54.40
34249;DHT22;20508;50.834;3.160;2022-11-22T01:07:05;16.30;54.40
34249;DHT22;20508;50.834;3.160;2022-11-22T01:09:31;16.30;54.40
34249;DHT22;20508;50.834;3.160;2022-11-22T01:11:57;16.30;54.40
34249;DHT22;20508;50.834;3.160;2022-11-22T01:14:23;16.30;54.30
34249;DHT22;20508;50.834;3.160;2022-11-22T01:16:49;16.30;54.40
34249;DHT22;20508;50.834;3.160;2022-11-22T01:19:14;16.30;54.30
34249;DHT22;20508;50.834;3.160;2022-11-22T01:21:40;16.30;54.30
34249;DHT22;20508;50.834;3.160;2022-11-22T01:24:07;16.30;54.30
34249;DHT22;20508;50.834;3.160;2022-11-22T01:26:33;16.30;54.20
34249;DHT22;20508;50.834;3.160;2022-11-22T01:28:59;16.30;54.20
34249;DHT22;20508;50.834;3.160;2022-11-22T01:31:25;16.30;54.20
34249;DHT22;20508;50.834;3.160;2022-11-22T01:33:51;16.30;54.20
34249;DHT22;20508;50.834;3.160;2022-11-22T01:36:16;16.30;54.20
34249;DHT22;20508;50.834;3.160;2022-11-22T01:38:42;16.30;54.20
34249;DHT22;20508;50.834;3.160;2022-11-22T01:41:08;16.30;54.20
34249;DHT22;20508;50.834;3.160;2022-11-22T01:43:33;16.20;54.20
34249;DHT22;20508;50.834;3.160;2022-11-22T01:46:04;16.20;54.20
34249;DHT22;20508;50.834;3.160;2022-11-22T01:49:00;16.30;54.20
34249;DHT22;20508;50.834;3.160;2022-11-22T01:51:33;16.20;54.20
34249;DHT22;20508;50.834;3.160;2022-11-22T01:54:05;16.20;54.30
34249;DHT22;20508;50.834;3.160;2022-11-22T01:56:32;16.20;54.30
34249;DHT22;20508;50.834;3.160;2022-11-22T01:59:02;16.10;54.30
34249;DHT22;20508;50.834;3.160;2022-11-22T02:01:31;16.20;54.30
34249;DHT22;20508;50.834;3.160;2022-11-22T02:03:59;16.20;54.30
34249;DHT22;20508;50.834;3.160;2022-11-22T02:06:31;16.10;54.20
34249;DHT22;20508;50.834;3.160;2022-11-22T02:09:09;16.20;54.20
34249;DHT22;20508;50.834;3.160;2022-11-22T02:11:39;16.20;54.20
34249;DHT22;20508;50.834;3.160;2022-11-22T02:14:07;16.20;54.20
34249;DHT22;20508;50.834;3.160;2022-11-22T02:16:34;16.20;54.10
34249;DHT22;20508;50.834;3.160;2022-11-22T02:19:00;16.20;54.00
34249;DHT22;20508;50.834;3.160;2022-11-22T02:21:27;16.20;54.00
34249;DHT22;20508;50.834;3.160;2022-11-22T02:24:10;16.20;53.90
34249;DHT22;20508;50.834;3.160;2022-11-22T02:26:39;16.30;53.90
34249;DHT22;20508;50.834;3.160;2022-11-22T02:29:07;16.20;54.00
34249;DHT22;20508;50.834;3.160;2022-11-22T02:34:04;16.20;53.80
34249;DHT22;20508;50.834;3.160;2022-11-22T02:36:34;16.10;53.90
34249;DHT22;20508;50.834;3.160;2022-11-22T02:39:00;16.10;53.90
34249;DHT22;20508;50.834;3.160;2022-11-22T02:41:26;16.10;53.90
34249;DHT22;20508;50.834;3.160;2022-11-22T02:43:52;16.10;53.90
34249;DHT22;20508;50.834;3.160;2022-11-22T02:46:18;16.10;53.90
34249;DHT22;20508;50.834;3.160;2022-11-22T02:48:46;16.10;53.90
34249;DHT22;20508;50.834;3.160;2022-11-22T02:51:13;16.10;53.90
34249;DHT22;20508;50.834;3.160;2022-11-22T02:53:44;16.10;53.90
34249;DHT22;20508;50.834;3.160;2022-11-22T02:56:10;16.10;53.80
34249;DHT22;20508;50.834;3.160;2022-11-22T02:58:36;16.10;53.80
34249;DHT22;20508;50.834;3.160;2022-11-22T03:01:02;16.10;53.70
34249;DHT22;20508;50.834;3.160;2022-11-22T03:03:29;16.10;53.70
34249;DHT22;20508;50.834;3.160;2022-11-22T03:05:55;16.10;53.60
34249;DHT22;20508;50.834;3.160;2022-11-22T03:08:21;16.20;53.60
34249;DHT22;20508;50.834;3.160;2022-11-22T03:10:47;16.10;53.50
34249;DHT22;20508;50.834;3.160;2022-11-22T03:13:13;16.10;53.40
34249;DHT22;20508;50.834;3.160;2022-11-22T03:15:38;16.10;53.40
34249;DHT22;20508;50.834;3.160;2022-11-22T03:18:04;16.10;53.40
34249;DHT22;20508;50.834;3.160;2022-11-22T03:20:31;16.10;53.40
34249;DHT22;20508;50.834;3.160;2022-11-22T03:22:59;16.10;53.40
34249;DHT22;20508;50.834;3.160;2022-11-22T03:25:25;16.10;53.40
34249;DHT22;20508;50.834;3.160;2022-11-22T03:27:51;16.10;53.50
34249;DHT22;20508;50.834;3.160;2022-11-22T03:30:17;16.10;53.50
34249;DHT22;20508;50.834;3.160;2022-11-22T03:32:42;16.10;53.50
34249;DHT22;20508;50.834;3.160;2022-11-22T03:35:09;16.00;53.50
34249;DHT22;20508;50.834;3.160;2022-11-22T03:37:35;16.00;53.50
34249;DHT22;20508;50.834;3.160;2022-11-22T03:40:00;16.00;53.50
34249;DHT22;20508;50.834;3.160;2022-11-22T03:42:26;16.00;53.50
34249;DHT22;20508;50.834;3.160;2022-11-22T03:44:52;16.00;53.40
34249;DHT22;20508;50.834;3.160;2022-11-22T03:47:18;16.10;53.50
34249;DHT22;20508;50.834;3.160;2022-11-22T03:49:44;16.00;53.40
34249;DHT22;20508;50.834;3.160;2022-11-22T03:52:10;16.10;53.40
34249;DHT22;20508;50.834;3.160;2022-11-22T03:54:36;16.10;53.30
34249;DHT22;20508;50.834;3.160;2022-11-22T03:57:01;16.10;53.20
34249;DHT22;20508;50.834;3.160;2022-11-22T03:59:27;16.10;53.20
34249;DHT22;20508;50.834;3.160;2022-11-22T04:01:53;16.10;53.10
34249;DHT22;20508;50.834;3.160;2022-11-22T04:04:19;16.10;53.10
34249;DHT22;20508;50.834;3.160;2022-11-22T04:06:45;16.10;53.10
34249;DHT22;20508;50.834;3.160;2022-11-22T04:09:11;16.10;53.10
34249;DHT22;20508;50.834;3.160;2022-11-22T04:11:37;16.10;53.10
34249;DHT22;20508;50.834;3.160;2022-11-22T04:14:02;16.10;53.20
34249;DHT22;20508;50.834;3.160;2022-11-22T04:16:47;16.10;53.10
34249;DHT22;20508;50.834;3.160;2022-11-22T04:19:12;16.00;53.10
34249;DHT22;20508;50.834;3.160;2022-11-22T04:21:38;16.00;53.20
34249;DHT22;20508;50.834;3.160;2022-11-22T04:24:07;16.00;53.20
34249;DHT22;20508;50.834;3.160;2022-11-22T04:26:51;16.00;53.20
34249;DHT22;20508;50.834;3.160;2022-11-22T04:29:18;16.00;53.20
34249;DHT22;20508;50.834;3.160;2022-11-22T04:31:45;16.00;53.20
34249;DHT22;20508;50.834;3.160;2022-11-22T04:34:29;16.00;53.30
34249;DHT22;20508;50.834;3.160;2022-11-22T04:36:55;16.00;53.30
34249;DHT22;20508;50.834;3.160;2022-11-22T04:39:20;16.00;53.30
34249;DHT22;20508;50.834;3.160;2022-11-22T04:41:46;16.00;53.20
34249;DHT22;20508;50.834;3.160;2022-11-22T04:44:12;16.10;53.20
34249;DHT22;20508;50.834;3.160;2022-11-22T04:46:56;16.00;53.00
34249;DHT22;20508;50.834;3.160;2022-11-22T04:49:22;16.10;53.00
34249;DHT22;20508;50.834;3.160;2022-11-22T04:51:47;16.10;52.80
34249;DHT22;20508;50.834;3.160;2022-11-22T04:54:31;16.10;52.80
34249;DHT22;20508;50.834;3.160;2022-11-22T04:56:57;16.20;52.80
34249;DHT22;20508;50.834;3.160;2022-11-22T04:59:23;16.20;52.70
34249;DHT22;20508;50.834;3.160;2022-11-22T05:01:48;16.20;52.60
34249;DHT22;20508;50.834;3.160;2022-11-22T05:04:14;16.20;52.60
34249;DHT22;20508;50.834;3.160;2022-11-22T05:06:40;16.20;52.50
34249;DHT22;20508;50.834;3.160;2022-11-22T05:09:06;16.20;52.50
34249;DHT22;20508;50.834;3.160;2022-11-22T05:11:32;16.20;52.50
34249;DHT22;20508;50.834;3.160;2022-11-22T05:13:57;16.20;52.50
34249;DHT22;20508;50.834;3.160;2022-11-22T05:16:23;16.20;52.50
34249;DHT22;20508;50.834;3.160;2022-11-22T05:18:49;16.10;52.50
34249;DHT22;20508;50.834;3.160;2022-11-22T05:21:24;16.10;52.60
34249;DHT22;20508;50.834;3.160;2022-11-22T05:23:51;16.10;52.60
34249;DHT22;20508;50.834;3.160;2022-11-22T05:26:31;16.10;52.60
34249;DHT22;20508;50.834;3.160;2022-11-22T05:28:58;16.10;52.60
34249;DHT22;20508;50.834;3.160;2022-11-22T05:31:25;16.10;52.70
34249;DHT22;20508;50.834;3.160;2022-11-22T05:33:53;16.10;52.60
34249;DHT22;20508;50.834;3.160;2022-11-22T05:36:20;16.10;52.50
34249;DHT22;20508;50.834;3.160;2022-11-22T05:38:46;16.10;52.50
34249;DHT22;20508;50.834;3.160;2022-11-22T05:41:13;16.10;52.50
34249;DHT22;20508;50.834;3.160;2022-11-22T05:43:39;16.10;52.40
34249;DHT22;20508;50.834;3.160;2022-11-22T05:46:18;16.10;52.40
34249;DHT22;20508;50.834;3.160;2022-11-22T05:48:45;16.10;52.40
34249;DHT22;20508;50.834;3.160;2022-11-22T05:51:14;16.10;52.50
34249;DHT22;20508;50.834;3.160;2022-11-22T05:53:40;16.10;52.50
34249;DHT22;20508;50.834;3.160;2022-11-22T05:56:11;16.10;52.60
34249;DHT22;20508;50.834;3.160;2022-11-22T05:58:37;16.10;52.60
34249;DHT22;20508;50.834;3.160;2022-11-22T06:01:04;16.00;52.60
34249;DHT22;20508;50.834;3.160;2022-11-22T06:03:31;16.00;52.60
34249;DHT22;20508;50.834;3.160;2022-11-22T06:05:56;16.00;52.70
34249;DHT22;20508;50.834;3.160;2022-11-22T06:08:22;16.00;52.70
34249;DHT22;20508;50.834;3.160;2022-11-22T06:10:48;16.00;52.70
34249;DHT22;20508;50.834;3.160;2022-11-22T06:13:13;16.00;52.70
34249;DHT22;20508;50.834;3.160;2022-11-22T06:15:39;16.00;53.00
34249;DHT22;20508;50.834;3.160;2022-11-22T06:18:05;16.00;52.70
34249;DHT22;20508;50.834;3.160;2022-11-22T06:20:31;16.00;52.70
34249;DHT22;20508;50.834;3.160;2022-11-22T06:22:59;16.00;52.70
34249;DHT22;20508;50.834;3.160;2022-11-22T06:25:25;16.00;52.60
34249;DHT22;20508;50.834;3.160;2022-11-22T06:27:51;16.00;52.60
34249;DHT22;20508;50.834;3.160;2022-11-22T06:30:17;16.10;52.60
34249;DHT22;20508;50.834;3.160;2022-11-22T06:32:43;16.10;53.20
34249;DHT22;20508;50.834;3.160;2022-11-22T06:35:08;16.10;52.50
34249;DHT22;20508;50.834;3.160;2022-11-22T06:37:34;16.10;52.50
34249;DHT22;20508;50.834;3.160;2022-11-22T06:40:00;16.00;52.50
34249;DHT22;20508;50.834;3.160;2022-11-22T06:42:26;16.00;52.50
34249;DHT22;20508;50.834;3.160;2022-11-22T06:44:51;16.00;52.50
34249;DHT22;20508;50.834;3.160;2022-11-22T06:47:17;16.00;52.50
34249;DHT22;20508;50.834;3.160;2022-11-22T06:49:43;16.00;52.50
34249;DHT22;20508;50.834;3.160;2022-11-22T06:52:09;16.00;52.50
34249;DHT22;20508;50.834;3.160;2022-11-22T06:54:35;16.00;52.60
34249;DHT22;20508;50.834;3.160;2022-11-22T06:57:01;16.00;52.60
34249;DHT22;20508;50.834;3.160;2022-11-22T06:59:27;15.90;52.60
34249;DHT22;20508;50.834;3.160;2022-11-22T07:01:52;15.90;53.30
34249;DHT22;20508;50.834;3.160;2022-11-22T07:04:18;15.90;52.70
34249;DHT22;20508;50.834;3.160;2022-11-22T07:06:46;15.90;52.70
34249;DHT22;20508;50.834;3.160;2022-11-22T07:09:12;16.00;52.70
34249;DHT22;20508;50.834;3.160;2022-11-22T07:11:38;15.90;52.60
34249;DHT22;20508;50.834;3.160;2022-11-22T07:14:04;16.00;52.60
34249;DHT22;20508;50.834;3.160;2022-11-22T07:16:30;16.00;52.60
34249;DHT22;20508;50.834;3.160;2022-11-22T07:18:57;16.00;52.50
34249;DHT22;20508;50.834;3.160;2022-11-22T07:21:24;16.00;52.50
34249;DHT22;20508;50.834;3.160;2022-11-22T07:23:53;16.00;52.50
34249;DHT22;20508;50.834;3.160;2022-11-22T07:26:21;16.00;52.40
34249;DHT22;20508;50.834;3.160;2022-11-22T07:28:48;16.00;52.50
34249;DHT22;20508;50.834;3.160;2022-11-22T07:31:16;16.00;52.50
34249;DHT22;20508;50.834;3.160;2022-11-22T07:33:42;16.00;52.50
34249;DHT22;20508;50.834;3.160;2022-11-22T07:36:20;16.00;52.50
34249;DHT22;20508;50.834;3.160;2022-11-22T07:38:46;16.00;52.50
34249;DHT22;20508;50.834;3.160;2022-11-22T07:41:13;15.90;52.50
34249;DHT22;20508;50.834;3.160;2022-11-22T07:43:39;15.90;52.60
34249;DHT22;20508;50.834;3.160;2022-11-22T07:46:09;15.90;52.60
34249;DHT22;20508;50.834;3.160;2022-11-22T07:48:37;15.90;52.60
34249;DHT22;20508;50.834;3.160;2022-11-22T07:51:05;15.80;52.60
34249;DHT22;20508;50.834;3.160;2022-11-22T07:53:34;15.80;53.10
34249;DHT22;20508;50.834;3.160;2022-11-22T07:56:02;15.80;53.10
34249;DHT22;20508;50.834;3.160;2022-11-22T07:58:28;15.90;53.10
34249;DHT22;20508;50.834;3.160;2022-11-22T08:00:54;15.90;53.00
34249;DHT22;20508;50.834;3.160;2022-11-22T08:03:20;15.90;53.00
34249;DHT22;20508;50.834;3.160;2022-11-22T08:05:47;15.90;53.00
34249;DHT22;20508;50.834;3.160;2022-11-22T08:08:13;16.00;52.90
34249;DHT22;20508;50.834;3.160;2022-11-22T08:10:39;16.00;52.90
34249;DHT22;20508;50.834;3.160;2022-11-22T08:13:06;16.00;53.10
34249;DHT22;20508;50.834;3.160;2022-11-22T08:15:32;16.00;52.70
34249;DHT22;20508;50.834;3.160;2022-11-22T08:17:59;16.00;52.70
34249;DHT22;20508;50.834;3.160;2022-11-22T08:20:26;16.00;52.70
34249;DHT22;20508;50.834;3.160;2022-11-22T08:22:52;16.00;52.70
34249;DHT22;20508;50.834;3.160;2022-11-22T08:25:19;16.00;53.40
34249;DHT22;20508;50.834;3.160;2022-11-22T08:27:46;16.00;52.70
34249;DHT22;20508;50.834;3.160;2022-11-22T08:30:12;15.90;52.70
34249;DHT22;20508;50.834;3.160;2022-11-22T08:32:39;15.90;52.70
34249;DHT22;20508;50.834;3.160;2022-11-22T08:35:05;15.90;52.70
34249;DHT22;20508;50.834;3.160;2022-11-22T08:37:32;15.90;52.70
34249;DHT22;20508;50.834;3.160;2022-11-22T08:39:58;15.90;52.80
34249;DHT22;20508;50.834;3.160;2022-11-22T08:42:24;15.90;52.80
34249;DHT22;20508;50.834;3.160;2022-11-22T08:44:51;15.90;52.80
34249;DHT22;20508;50.834;3.160;2022-11-22T08:47:17;15.90;52.80
34249;DHT22;20508;50.834;3.160;2022-11-22T08:49:44;15.90;52.80
34249;DHT22;20508;50.834;3.160;2022-11-22T08:52:10;16.00;52.90
34249;DHT22;20508;50.834;3.160;2022-11-22T08:54:36;16.00;52.90
34249;DHT22;20508;50.834;3.160;2022-11-22T08:57:03;16.00;52.80
34249;DHT22;20508;50.834;3.160;2022-11-22T08:59:29;16.00;52.70
34249;DHT22;20508;50.834;3.160;2022-11-22T09:01:55;16.10;52.60
34249;DHT22;20508;50.834;3.160;2022-11-22T09:04:22;16.10;52.60
34249;DHT22;20508;50.834;3.160;2022-11-22T09:06:48;16.10;52.50
34249;DHT22;20508;50.834;3.160;2022-11-22T09:09:15;16.20;52.50
34249;DHT22;20508;50.834;3.160;2022-11-22T09:11:41;16.20;52.40
34249;DHT22;20508;50.834;3.160;2022-11-22T09:14:07;16.20;52.90
34249;DHT22;20508;50.834;3.160;2022-11-22T09:16:33;16.20;52.40
34249;DHT22;20508;50.834;3.160;2022-11-22T09:18:59;16.20;52.30
34249;DHT22;20508;50.834;3.160;2022-11-22T09:21:25;16.20;52.30
34249;DHT22;20508;50.834;3.160;2022-11-22T09:23:50;16.20;52.30
34249;DHT22;20508;50.834;3.160;2022-11-22T09:26:21;16.20;52.30
34249;DHT22;20508;50.834;3.160;2022-11-22T09:28:47;16.20;52.30
34249;DHT22;20508;50.834;3.160;2022-11-22T09:31:15;16.20;52.40
34249;DHT22;20508;50.834;3.160;2022-11-22T09:33:43;16.20;52.50
34249;DHT22;20508;50.834;3.160;2022-11-22T09:36:19;16.10;52.50
34249;DHT22;20508;50.834;3.160;2022-11-22T09:38:47;16.20;52.60
34249;DHT22;20508;50.834;3.160;2022-11-22T09:46:51;16.20;53.10
34249;DHT22;20508;50.834;3.160;2022-11-22T09:49:24;16.20;53.10
34249;DHT22;20508;50.834;3.160;2022-11-22T09:52:08;16.20;53.10
34249;DHT22;20508;50.834;3.160;2022-11-22T09:54:58;16.20;53.00
34249;DHT22;20508;50.834;3.160;2022-11-22T09:57:32;16.20;53.00
34249;DHT22;20508;50.834;3.160;2022-11-22T10:00:08;16.20;53.00
34249;DHT22;20508;50.834;3.160;2022-11-22T10:02:44;16.20;53.00
34249;DHT22;20508;50.834;3.160;2022-11-22T10:05:16;16.20;53.10
34249;DHT22;20508;50.834;3.160;2022-11-22T10:07:55;16.20;53.10
34249;DHT22;20508;50.834;3.160;2022-11-22T10:10:31;16.20;53.00
34249;DHT22;20508;50.834;3.160;2022-11-22T10:13:21;16.20;53.30
34249;DHT22;20508;50.834;3.160;2022-11-22T10:18:59;16.20;53.90
34249;DHT22;20508;50.834;3.160;2022-11-22T10:21:28;16.20;53.70
34249;DHT22;20508;50.834;3.160;2022-11-22T10:23:54;16.10;53.80
34249;DHT22;20508;50.834;3.160;2022-11-22T10:26:24;16.10;53.70
34249;DHT22;20508;50.834;3.160;2022-11-22T10:32:27;16.20;54.50
34249;DHT22;20508;50.834;3.160;2022-11-22T10:40:22;16.20;53.70
34249;DHT22;20508;50.834;3.160;2022-11-22T10:43:11;16.20;53.50
34249;DHT22;20508;50.834;3.160;2022-11-22T10:45:45;16.20;53.60
34249;DHT22;20508;50.834;3.160;2022-11-22T10:51:26;16.20;53.40
34249;DHT22;20508;50.834;3.160;2022-11-22T10:56:30;16.20;53.60
34249;DHT22;20508;50.834;3.160;2022-11-22T11:04:36;16.10;53.70
34249;DHT22;20508;50.834;3.160;2022-11-22T11:07:04;16.10;53.70
34249;DHT22;20508;50.834;3.160;2022-11-22T11:09:46;16.10;53.70
34249;DHT22;20508;50.834;3.160;2022-11-22T11:12:16;16.20;53.70
34249;DHT22;20508;50.834;3.160;2022-11-22T11:15:01;16.10;53.70
34249;DHT22;20508;50.834;3.160;2022-11-22T11:17:35;16.10;54.10
34249;DHT22;20508;50.834;3.160;2022-11-22T11:20:09;16.10;54.70
34249;DHT22;20508;50.834;3.160;2022-11-22T11:22:35;16.20;54.50
34249;DHT22;20508;50.834;3.160;2022-11-22T11:25:33;16.20;54.30
34249;DHT22;20508;50.834;3.160;2022-11-22T11:28:23;16.30;54.10
34249;DHT22;20508;50.834;3.160;2022-11-22T11:30:52;16.20;54.10
34249;DHT22;20508;50.834;3.160;2022-11-22T11:33:44;16.20;54.00
34249;DHT22;20508;50.834;3.160;2022-11-22T11:36:11;16.30;54.00
34249;DHT22;20508;50.834;3.160;2022-11-22T11:39:19;16.20;54.20
34249;DHT22;20508;50.834;3.160;2022-11-22T11:41:46;16.30;54.00
34249;DHT22;20508;50.834;3.160;2022-11-22T11:44:30;16.30;54.20
34249;DHT22;20508;50.834;3.160;2022-11-22T11:46:58;16.30;54.00
34249;DHT22;20508;50.834;3.160;2022-11-22T11:49:28;16.20;54.80
34249;DHT22;20508;50.834;3.160;2022-11-22T11:51:57;16.30;54.70
34249;DHT22;20508;50.834;3.160;2022-11-22T11:54:40;16.30;54.50
34249;DHT22;20508;50.834;3.160;2022-11-22T11:57:29;16.20;54.80
34249;DHT22;20508;50.834;3.160;2022-11-22T12:00:00;16.20;54.20
34249;DHT22;20508;50.834;3.160;2022-11-22T12:02:38;16.20;54.70
34249;DHT22;20508;50.834;3.160;2022-11-22T12:07:45;16.30;57.30
34249;DHT22;20508;50.834;3.160;2022-11-22T12:10:40;16.40;56.80
34249;DHT22;20508;50.834;3.160;2022-11-22T12:13:39;16.70;55.90
34249;DHT22;20508;50.834;3.160;2022-11-22T12:16:20;16.80;55.60
34249;DHT22;20508;50.834;3.160;2022-11-22T12:21:42;16.80;55.20
34249;DHT22;20508;50.834;3.160;2022-11-22T12:30:02;16.80;55.10
34249;DHT22;20508;50.834;3.160;2022-11-22T12:32:53;16.60;55.00
34249;DHT22;20508;50.834;3.160;2022-11-22T12:35:28;16.70;55.00
34249;DHT22;20508;50.834;3.160;2022-11-22T12:38:30;16.60;55.30
34249;DHT22;20508;50.834;3.160;2022-11-22T12:41:03;16.60;55.50
34249;DHT22;20508;50.834;3.160;2022-11-22T12:43:50;16.50;56.80
34249;DHT22;20508;50.834;3.160;2022-11-22T12:46:22;16.50;57.50
34249;DHT22;20508;50.834;3.160;2022-11-22T12:48:53;16.50;57.10
34249;DHT22;20508;50.834;3.160;2022-11-22T12:51:43;16.50;57.00
34249;DHT22;20508;50.834;3.160;2022-11-22T12:54:18;16.60;56.40
34249;DHT22;20508;50.834;3.160;2022-11-22T12:56:58;16.50;56.40
34249;DHT22;20508;50.834;3.160;2022-11-22T12:59:36;16.50;56.20
34249;DHT22;20508;50.834;3.160;2022-11-22T13:02:30;16.50;56.30
34249;DHT22;20508;50.834;3.160;2022-11-22T13:05:12;16.50;56.10
34249;DHT22;20508;50.834;3.160;2022-11-22T13:13:46;16.50;55.80
34249;DHT22;20508;50.834;3.160;2022-11-22T13:16:13;16.50;55.80
34249;DHT22;20508;50.834;3.160;2022-11-22T13:18:43;16.50;55.60
34249;DHT22;20508;50.834;3.160;2022-11-22T13:30:23;16.60;55.30
34249;DHT22;20508;50.834;3.160;2022-11-22T13:32:56;16.60;55.60
34249;DHT22;20508;50.834;3.160;2022-11-22T13:35:49;16.50;55.80
34249;DHT22;20508;50.834;3.160;2022-11-22T13:38:22;16.60;55.60
34249;DHT22;20508;50.834;3.160;2022-11-22T13:41:21;16.50;55.60
34249;DHT22;20508;50.834;3.160;2022-11-22T13:43:54;16.50;55.60
34249;DHT22;20508;50.834;3.160;2022-11-22T13:49:28;16.60;55.60
34249;DHT22;20508;50.834;3.160;2022-11-22T13:51:55;16.60;55.70
34249;DHT22;20508;50.834;3.160;2022-11-22T14:02:48;16.60;55.40
34249;DHT22;20508;50.834;3.160;2022-11-22T14:07:57;16.50;55.30
34249;DHT22;20508;50.834;3.160;2022-11-22T14:10:58;16.50;55.40
34249;DHT22;20508;50.834;3.160;2022-11-22T14:21:45;16.40;55.40
34249;DHT22;20508;50.834;3.160;2022-11-22T14:30:50;16.40;56.10
34249;DHT22;20508;50.834;3.160;2022-11-22T14:33:22;16.40;56.20
34249;DHT22;20508;50.834;3.160;2022-11-22T14:38:40;16.40;56.00
34249;DHT22;20508;50.834;3.160;2022-11-22T14:49:15;16.50;56.20
34249;DHT22;20508;50.834;3.160;2022-11-22T14:51:44;16.50;56.20
34249;DHT22;20508;50.834;3.160;2022-11-22T14:54:36;16.40;56.00
34249;DHT22;20508;50.834;3.160;2022-11-22T14:57:06;16.50;55.80
34249;DHT22;20508;50.834;3.160;2022-11-22T14:59:52;16.50;56.20
34249;DHT22;20508;50.834;3.160;2022-11-22T15:08:24;16.50;56.00
34249;DHT22;20508;50.834;3.160;2022-11-22T15:11:09;16.40;56.00
34249;DHT22;20508;50.834;3.160;2022-11-22T15:16:24;16.40;56.00
34249;DHT22;20508;50.834;3.160;2022-11-22T15:18:54;16.40;56.00
34249;DHT22;20508;50.834;3.160;2022-11-22T15:21:26;16.40;56.00
34249;DHT22;20508;50.834;3.160;2022-11-22T15:24:21;16.30;56.00
34249;DHT22;20508;50.834;3.160;2022-11-22T15:33:49;16.40;56.30
34249;DHT22;20508;50.834;3.160;2022-11-22T15:36:40;16.30;56.40
34249;DHT22;20508;50.834;3.160;2022-11-22T15:39:17;16.40;56.30
34249;DHT22;20508;50.834;3.160;2022-11-22T15:41:57;16.40;56.20
34249;DHT22;20508;50.834;3.160;2022-11-22T15:44:26;16.40;56.10
34249;DHT22;20508;50.834;3.160;2022-11-22T15:46:52;16.40;56.10
34249;DHT22;20508;50.834;3.160;2022-11-22T15:49:19;16.40;56.00
34249;DHT22;20508;50.834;3.160;2022-11-22T15:51:52;16.40;55.90
34249;DHT22;20508;50.834;3.160;2022-11-22T15:54:23;16.50;55.90
34249;DHT22;20508;50.834;3.160;2022-11-22T15:59:42;16.40;56.00
34249;DHT22;20508;50.834;3.160;2022-11-22T16:02:19;16.40;55.80
34249;DHT22;20508;50.834;3.160;2022-11-22T16:04:49;16.40;55.90
34249;DHT22;20508;50.834;3.160;2022-11-22T16:07:33;16.40;56.00
34249;DHT22;20508;50.834;3.160;2022-11-22T16:09:59;16.40;56.00
34249;DHT22;20508;50.834;3.160;2022-11-22T16:12:35;16.30;56.00
34249;DHT22;20508;50.834;3.160;2022-11-22T16:17:51;16.40;56.00
34249;DHT22;20508;50.834;3.160;2022-11-22T16:20:24;16.30;56.10
34249;DHT22;20508;50.834;3.160;2022-11-22T16:25:37;16.40;56.10
34249;DHT22;20508;50.834;3.160;2022-11-22T16:28:26;16.40;56.50
34249;DHT22;20508;50.834;3.160;2022-11-22T16:30:54;16.50;56.30
34249;DHT22;20508;50.834;3.160;2022-11-22T16:33:21;16.50;56.20
34249;DHT22;20508;50.834;3.160;2022-11-22T16:36:00;16.40;56.10
34249;DHT22;20508;50.834;3.160;2022-11-22T16:38:26;16.50;56.00
34249;DHT22;20508;50.834;3.160;2022-11-22T16:40:55;16.50;56.00
34249;DHT22;20508;50.834;3.160;2022-11-22T16:43:23;16.50;55.90
34249;DHT22;20508;50.834;3.160;2022-11-22T16:45:50;16.50;55.90
34249;DHT22;20508;50.834;3.160;2022-11-22T16:48:22;16.40;55.90
34249;DHT22;20508;50.834;3.160;2022-11-22T16:51:21;16.50;55.90
34249;DHT22;20508;50.834;3.160;2022-11-22T16:53:48;16.50;55.90
34249;DHT22;20508;50.834;3.160;2022-11-22T16:56:20;16.40;56.00
34249;DHT22;20508;50.834;3.160;2022-11-22T16:58:47;16.40;56.10
34249;DHT22;20508;50.834;3.160;2022-11-22T17:01:14;16.30;56.70
34249;DHT22;20508;50.834;3.160;2022-11-22T17:03:42;16.40;57.40
34249;DHT22;20508;50.834;3.160;2022-11-22T17:06:16;16.40;57.20
34249;DHT22;20508;50.834;3.160;2022-11-22T17:08:46;16.50;56.90
34249;DHT22;20508;50.834;3.160;2022-11-22T17:11:15;16.50;56.90
34249;DHT22;20508;50.834;3.160;2022-11-22T17:13:41;16.50;56.90
34249;DHT22;20508;50.834;3.160;2022-11-22T17:16:08;16.50;56.70
34249;DHT22;20508;50.834;3.160;2022-11-22T17:18:35;16.60;56.50
34249;DHT22;20508;50.834;3.160;2022-11-22T17:21:03;16.60;56.30
34249;DHT22;20508;50.834;3.160;2022-11-22T17:23:34;16.60;56.20
34249;DHT22;20508;50.834;3.160;2022-11-22T17:26:04;16.60;56.10
34249;DHT22;20508;50.834;3.160;2022-11-22T17:28:30;16.60;56.00
34249;DHT22;20508;50.834;3.160;2022-11-22T17:31:00;16.60;55.90
34249;DHT22;20508;50.834;3.160;2022-11-22T17:33:26;16.70;55.90
34249;DHT22;20508;50.834;3.160;2022-11-22T17:35:53;16.60;55.80
34249;DHT22;20508;50.834;3.160;2022-11-22T17:38:19;16.70;55.80
34249;DHT22;20508;50.834;3.160;2022-11-22T17:40:45;16.70;55.80
34249;DHT22;20508;50.834;3.160;2022-11-22T17:43:11;16.60;55.80
34249;DHT22;20508;50.834;3.160;2022-11-22T17:45:41;16.60;55.80
34249;DHT22;20508;50.834;3.160;2022-11-22T17:48:08;16.60;55.90
34249;DHT22;20508;50.834;3.160;2022-11-22T17:50:35;16.60;55.90